Flight Track Log - Related Links

Times and Time Zones

All times are in EDT time to prevent confusion due to time zone crossing. See the ASQ5815 flight status page for this flight to view local times or setup timezone preferences in your user account.

Time Position Orientation Groundspeed Altitude Reporting Facility
EDT Latitude Longitude Course Direction KTS MPH feet Rate Location/Type
Mon 09:53:44 PM 41.9667 -87.9667 251° West 170 196 3,500  Level Chicago TRACON
Mon 09:54:44 PM 41.9667 -88.0500 270° West 216 249 5,000 647 Climbing Chicago TRACON
Mon 09:56:00 PM 41.9295 -88.4840 264° West  Level FlightAware Approximate
Mon 09:56:03 PM 41.9406 -88.1533 251° West 239 275 5,000  Level Chicago Center
Mon 09:57:00 PM 41.9182 -88.6302 264° West  Level FlightAware Approximate
Mon 09:57:04 PM 41.9133 -88.2369 246° West 241 277 5,500  Level Chicago Center
Mon 09:58:00 PM 41.9063 -88.7748 251° West  Level FlightAware Approximate
Mon 09:58:05 PM 41.8678 -88.3075 229° Southwest 252 290 8,200  Level Chicago Center
Mon 09:59:07 PM 41.8103 -88.3794 223° Southwest 259 298 10,700 2,244 Climbing Chicago Center
Mon 10:00:08 PM 41.8008 -88.4711 262° West 258 297 12,800 1,951 Climbing Chicago Center
Mon 10:01:10 PM 41.8036 -88.5683 272° West 261 300 14,700 1,659 Climbing Chicago Center
Mon 10:02:11 PM 41.8094 -88.6772 274° West 273 314 16,200 1,475 Climbing Chicago Center
Mon 10:03:12 PM 41.8142 -88.7867 273° West 294 338 17,700 1,366 Climbing Chicago Center
Mon 10:04:14 PM 41.8186 -88.8917 273° West 296 341 19,000 1,024 Climbing Chicago Center
Mon 10:05:15 PM 41.8236 -89.0092 273° West 309 356 19,800 885 Climbing Chicago Center
Mon 10:06:16 PM 41.8286 -89.1353 273° West 330 380 20,800 1,122 Climbing Chicago Center
Mon 10:07:18 PM 41.8342 -89.2628 273° West 342 394 22,100 1,171 Climbing Chicago Center
Mon 10:08:19 PM 41.8392 -89.4150 273° West 343 395 23,200 1,366 Climbing Chicago Center
Mon 10:09:21 PM 41.8439 -89.5411 273° West 341 392 24,900 1,463 Climbing Chicago Center
Mon 10:10:22 PM 41.8481 -89.6608 273° West 327 376 26,200 1,328 Climbing Chicago Center
Mon 10:11:23 PM 41.8444 -89.7803 268° West 327 376 27,600 1,463 Climbing Chicago Center
Mon 10:12:25 PM 41.8322 -89.8931 262° West 314 361 29,200 1,561 Climbing Chicago Center
Mon 10:13:26 PM 41.8217 -90.0072 263° West 306 352 30,800 1,623 Climbing Chicago Center
Mon 10:14:27 PM 41.8097 -90.1172 262° West 301 346 32,500 1,415 Climbing Chicago Center
Mon 10:15:29 PM 41.7964 -90.2372 262° West 295 339 33,700 732 Climbing Chicago Center
Mon 10:16:30 PM 41.7853 -90.3503 263° West 302 348 34,000 148 Climbing Chicago Center
Mon 10:17:31 PM 41.7703 -90.4775 261° West 330 380 34,000  Level Chicago Center
Mon 10:18:33 PM 41.7556 -90.6106 262° West 357 411 34,000  Level Chicago Center
Mon 10:19:34 PM 41.7383 -90.7536 261° West 355 409 34,000  Level Chicago Center
Mon 10:20:35 PM 41.7242 -90.8775 261° West 344 396 34,000  Level Chicago Center
Mon 10:21:37 PM 41.7086 -91.0044 261° West 344 396 34,000  Level Chicago Center
Mon 10:22:38 PM 41.6917 -91.1381 260° West 361 415 34,000  Level Chicago Center
Mon 10:23:39 PM 41.6756 -91.2708 261° West 361 415 34,000  Level Chicago Center
Mon 10:24:42 PM 41.6583 -91.4031 260° West 361 415 34,000  Level Chicago Center
Mon 10:25:42 PM 41.6425 -91.5317 261° West 358 412 34,000  Level Chicago Center
Mon 10:26:44 PM 41.6269 -91.6600 261° West 352 405 34,000  Level Chicago Center
Mon 10:27:45 PM 41.6100 -91.7864 260° West 351 404 34,000  Level Chicago Center
Mon 10:28:47 PM 41.5939 -91.9122 260° West 348 400 34,000  Level Chicago Center
Mon 10:29:48 PM 41.5736 -92.0644 260° West 348 400 34,000  Level Chicago Center
Mon 10:30:49 PM 41.5572 -92.1889 260° West 345 397 34,000  Level Chicago Center
Mon 10:31:51 PM 41.5397 -92.3147 260° West 344 396 34,000  Level Chicago Center
Mon 10:32:52 PM 41.5242 -92.4386 261° West 344 396 34,000  Level Chicago Center
Mon 10:33:54 PM 41.5056 -92.5639 259° West 343 395 34,000  Level Chicago Center
Mon 10:34:46 PM 41.4906 -92.6817 260° West 343 395 34,000  Level Minneapolis Center
Mon 10:35:47 PM 41.4731 -92.8083 260° West 344 396 34,000  Level Minneapolis Center
Mon 10:36:48 PM 41.4556 -92.9344 260° West 347 399 34,000  Level Minneapolis Center
Mon 10:37:49 PM 41.4378 -93.0578 259° West 347 399 34,000  Level Minneapolis Center
Mon 10:38:52 PM 41.4208 -93.1828 260° West 347 399 34,000  Level Minneapolis Center
Mon 10:39:53 PM 41.3986 -93.3297 259° West 346 398 34,000  Level Minneapolis Center
Mon 10:40:54 PM 41.3814 -93.4539 260° West 346 398 34,000  Level Minneapolis Center
Mon 10:41:55 PM 41.3636 -93.5772 259° West 346 398 34,000  Level Minneapolis Center
Mon 10:42:56 PM 41.3447 -93.7011 259° West 346 398 34,000  Level Minneapolis Center
Mon 10:43:57 PM 41.3264 -93.8250 259° West 346 398 34,000  Level Minneapolis Center
Mon 10:44:58 PM 41.3081 -93.9497 259° West 346 398 34,000  Level Minneapolis Center
Mon 10:45:59 PM 41.2892 -94.0742 259° West 346 398 34,000  Level Minneapolis Center
Mon 10:47:00 PM 41.2708 -94.1972 259° West 346 398 34,000 -541 Level Minneapolis Center
Mon 10:48:01 PM 41.2497 -94.3339 258° West 343 395 32,900 -1,475 Descending Minneapolis Center
Mon 10:49:02 PM 41.2303 -94.4606 259° West 346 398 31,000 -2,164 Descending Minneapolis Center
Mon 10:50:03 PM 41.2114 -94.5906 259° West 353 406 28,500 -2,410 Descending Minneapolis Center
Mon 10:51:04 PM 41.1906 -94.7222 258° West 359 413 26,100 -2,361 Descending Minneapolis Center
Mon 10:52:05 PM 41.1689 -94.8611 258° West 373 429 23,700 -2,361 Descending Minneapolis Center
Mon 10:53:06 PM 41.1461 -95.0022 258° West 388 447 21,300 -2,164 Descending Minneapolis Center
Mon 10:54:07 PM 41.1239 -95.1369 258° West 380 437 19,300 -2,026 Descending Minneapolis Center
Mon 10:54:23 PM 41.1250 -95.1889 272° West 366 421 18,700 -1,902 Descending Minneapolis Center
Mon 10:54:48 PM 41.1144 -95.2483 257° West 364 419 18,000 -1,333 Descending Minneapolis Center
Mon 10:55:08 PM 41.1022 -95.2675 230° Southwest 369 425 17,700 -1,500 Descending Minneapolis Center
Mon 10:55:48 PM 41.0922 -95.3758 263° West 356 410 16,500 -1,574 Descending Minneapolis Center
Mon 10:56:09 PM 41.0825 -95.3967 238° Southwest 363 418 16,100 -2,239 Descending Minneapolis Center
Mon 10:56:55 PM 41.0681 -95.5089 260° West 344 396 14,000 -2,656 Descending Minneapolis Center
Mon 10:57:10 PM 41.0575 -95.5450 249° West 349 402 13,400 -2,164 Descending Minneapolis Center
Mon 10:57:56 PM 41.0472 -95.6303 261° West 325 374 11,800 -1,967 Descending Minneapolis Center
Mon 10:58:11 PM 41.0378 -95.6614 248° West 331 381 11,400 -800 Descending Minneapolis Center
Mon 10:58:56 PM 41.0258 -95.7461 259° West 326 375 11,000 -295 Descending Minneapolis Center
Mon 10:59:12 PM 41.0186 -95.7792 254° West 330 380 11,100 98 Climbing Minneapolis Center
Mon 10:59:57 PM 41.0047 -95.8675 258° West 327 376 11,100 -98 Level Minneapolis Center
Mon 11:00:13 PM 40.9989 -95.8953 254° West 325 374 11,000 -100 Descending Minneapolis Center
Mon 11:00:57 PM 40.9814 -95.9889 256° West 331 381 11,000 -98 Level Minneapolis Center
Mon 11:01:14 PM 40.9794 -96.0150 264° West 328 377 10,900 -787 Descending Minneapolis Center
Mon 11:01:58 PM 40.9644 -96.0847 254° West 250 288 10,200 -1,082 Descending Minneapolis Center
Mon 11:02:15 PM 40.9633 -96.1058 266° West 266 306 9,800 -1,770 Descending Minneapolis Center
Mon 11:02:59 PM 40.9492 -96.1719 254° West 246 283 8,400 -1,869 Descending Minneapolis Center
Mon 11:03:16 PM 40.9489 -96.1958 269° West 252 290 7,900 -1,800 Descending Minneapolis Center
Mon 11:03:59 PM 40.9317 -96.2594 250° West 241 277 6,600 -1,645 Descending Minneapolis Center
Mon 11:04:18 PM 40.9339 -96.2819 277° West 246 283 6,200 -1,574 Descending Minneapolis Center
Mon 11:05:00 PM 40.9161 -96.3439 249° West 236 272 5,000 -1,475 Descending Minneapolis Center
Mon 11:05:19 PM 40.9189 -96.3661 279° West 244 281 4,700 -1,475 Descending Minneapolis Center
Mon 11:06:01 PM 40.9086 -96.4244 257° West 228 262 3,500 -1,475 Descending Minneapolis Center
Mon 11:06:20 PM 40.9164 -96.4506 292° West 237 273 3,200 -400 Descending Minneapolis Center
Mon 11:07:01 PM 40.9139 -96.5122 267° West 238 274 3,100 -98 Descending Minneapolis Center
Mon 11:07:21 PM 40.9239 -96.5372 298° West 237 273 3,100 -98 Level Minneapolis Center
Mon 11:08:02 PM 40.9194 -96.6025 265° West 235 270 3,000 -98 Descending Minneapolis Center
Mon 11:08:22 PM 40.9286 -96.6239 300° West 237 273 3,000 100 Level Minneapolis Center
Mon 11:09:02 PM 40.9350 -96.6864 278° West 244 281 3,100  Climbing Minneapolis Center
Mon 11:09:23 PM 40.9525 -96.7022 326° Northwest 239 275 3,000  Descending Minneapolis Center
Mon 11:09:57 PM 40.9717 -96.7433 302° West 224 258 3,100  Climbing Minneapolis Center
Mon 11:10:24 PM 40.9964 -96.7675 324° Northwest 242 278 3,000  Descending Minneapolis Center
Mon 11:10:58 PM 40.9692 -96.8042 225° Southwest 175 201 3,100 97 Climbing Minneapolis Center
Mon 11:11:26 PM 40.9706 -96.8183 277° West 211 243 3,100 -200 Level Minneapolis Center
Mon 11:11:58 PM 40.9244 -96.8281 189° South 157 181 2,900 -590 Descending Minneapolis Center
Mon 11:12:27 PM 40.9197 -96.8183 123° Southeast 182 209 2,500 -787 Descending Minneapolis Center
Mon 11:12:59 PM 40.8914 -96.7983 152° Southeast 140 161 2,100 -689 Descending Minneapolis Center
Mon 11:13:28 PM 40.8878 -96.7886 116° Southeast 158 182 1,800 -533 Descending Minneapolis Center
Mon 11:14:29 PM 40.8592 -96.7625 145° Southeast 149 171 1,300 -492 Descending Minneapolis Center

Login

Don't have an account? Register now (free) for customized features, flight alerts, and more!